sensor_id;sensor_type;location;lat;lon;timestamp;pressure;altitude;pressure_sealevel;temperature;humidity
32320;BME280;19080;51.750;5.888;2023-03-03T00:00:06;102235.81;;;1.95;100.00
32320;BME280;19080;51.750;5.888;2023-03-03T00:02:38;102115.81;;;1.28;100.00
32320;BME280;19080;51.750;5.888;2023-03-03T00:05:06;102179.47;;;1.64;100.00
32320;BME280;19080;51.750;5.888;2023-03-03T00:07:32;102110.59;;;1.28;100.00
32320;BME280;19080;51.750;5.888;2023-03-03T00:09:59;102249.44;;;2.03;100.00
32320;BME280;19080;51.750;5.888;2023-03-03T00:12:28;102243.75;;;2.09;100.00
32320;BME280;19080;51.750;5.888;2023-03-03T00:14:55;102220.53;;;2.02;100.00
32320;BME280;19080;51.750;5.888;2023-03-03T00:17:24;102243.06;;;2.11;100.00
32320;BME280;19080;51.750;5.888;2023-03-03T00:19:52;102202.59;;;1.83;100.00
32320;BME280;19080;51.750;5.888;2023-03-03T00:22:37;102136.94;;;1.43;100.00
32320;BME280;19080;51.750;5.888;2023-03-03T00:25:29;102256.50;;;2.04;100.00
32320;BME280;19080;51.750;5.888;2023-03-03T00:30:48;102131.75;;;1.32;100.00
32320;BME280;19080;51.750;5.888;2023-03-03T00:33:32;102181.97;;;1.51;100.00
32320;BME280;19080;51.750;5.888;2023-03-03T00:38:42;102235.88;;;1.72;100.00
32320;BME280;19080;51.750;5.888;2023-03-03T00:41:26;102242.94;;;1.73;100.00
32320;BME280;19080;51.750;5.888;2023-03-03T00:43:53;102224.97;;;1.66;100.00
32320;BME280;19080;51.750;5.888;2023-03-03T00:46:21;102177.44;;;1.37;100.00
32320;BME280;19080;51.750;5.888;2023-03-03T00:48:50;102140.06;;;1.14;100.00
32320;BME280;19080;51.750;5.888;2023-03-03T00:51:26;101940.25;;;0.04;100.00
32320;BME280;19080;51.750;5.888;2023-03-03T00:53:54;102201.78;;;1.47;100.00
32320;BME280;19080;51.750;5.888;2023-03-03T00:56:22;102268.97;;;1.83;100.00
32320;BME280;19080;51.750;5.888;2023-03-03T00:58:49;102271.44;;;1.93;100.00
32320;BME280;19080;51.750;5.888;2023-03-03T01:01:18;102258.13;;;1.90;100.00
32320;BME280;19080;51.750;5.888;2023-03-03T01:03:49;102162.56;;;1.36;100.00
32320;BME280;19080;51.750;5.888;2023-03-03T01:06:15;102194.03;;;1.49;100.00
32320;BME280;19080;51.750;5.888;2023-03-03T01:08:42;102104.72;;;0.96;100.00
32320;BME280;19080;51.750;5.888;2023-03-03T01:11:14;102262.81;;;1.83;100.00
32320;BME280;19080;51.750;5.888;2023-03-03T01:13:43;102164.59;;;1.40;100.00
32320;BME280;19080;51.750;5.888;2023-03-03T01:16:11;102187.00;;;1.48;100.00
32320;BME280;19080;51.750;5.888;2023-03-03T01:18:39;102144.03;;;1.33;100.00
32320;BME280;19080;51.750;5.888;2023-03-03T01:21:08;102281.22;;;2.08;100.00
32320;BME280;19080;51.750;5.888;2023-03-03T01:23:34;102253.34;;;1.96;100.00
32320;BME280;19080;51.750;5.888;2023-03-03T01:26:03;102283.03;;;2.09;100.00
32320;BME280;19080;51.750;5.888;2023-03-03T01:28:31;102175.72;;;1.60;100.00
32320;BME280;19080;51.750;5.888;2023-03-03T01:31:03;102181.16;;;1.63;100.00
32320;BME280;19080;51.750;5.888;2023-03-03T01:33:31;102274.38;;;2.10;100.00
32320;BME280;19080;51.750;5.888;2023-03-03T01:35:58;102270.41;;;2.03;100.00
32320;BME280;19080;51.750;5.888;2023-03-03T01:38:25;102271.75;;;2.10;100.00
32320;BME280;19080;51.750;5.888;2023-03-03T01:40:53;102203.69;;;1.73;100.00
32320;BME280;19080;51.750;5.888;2023-03-03T01:43:21;102168.69;;;1.48;100.00
32320;BME280;19080;51.750;5.888;2023-03-03T01:48:22;102241.72;;;1.93;100.00
32320;BME280;19080;51.750;5.888;2023-03-03T01:50:59;102241.47;;;2.02;100.00
32320;BME280;19080;51.750;5.888;2023-03-03T01:53:28;102284.50;;;2.17;100.00
32320;BME280;19080;51.750;5.888;2023-03-03T01:55:56;102178.78;;;1.55;100.00
32320;BME280;19080;51.750;5.888;2023-03-03T01:58:30;102263.22;;;2.01;100.00
32320;BME280;19080;51.750;5.888;2023-03-03T02:01:03;102257.88;;;1.99;100.00
32320;BME280;19080;51.750;5.888;2023-03-03T02:03:31;102234.69;;;1.92;100.00
32320;BME280;19080;51.750;5.888;2023-03-03T02:06:03;102164.69;;;1.53;100.00
32320;BME280;19080;51.750;5.888;2023-03-03T02:08:40;102279.22;;;2.28;100.00
32320;BME280;19080;51.750;5.888;2023-03-03T02:11:09;102162.28;;;1.56;100.00
32320;BME280;19080;51.750;5.888;2023-03-03T02:13:36;102178.78;;;1.67;100.00
32320;BME280;19080;51.750;5.888;2023-03-03T02:16:03;102261.06;;;2.07;100.00
32320;BME280;19080;51.750;5.888;2023-03-03T02:18:30;102280.28;;;2.19;100.00
32320;BME280;19080;51.750;5.888;2023-03-03T02:21:09;102191.97;;;1.68;100.00
32320;BME280;19080;51.750;5.888;2023-03-03T02:23:57;102256.63;;;2.06;100.00
32320;BME280;19080;51.750;5.888;2023-03-03T02:26:28;102263.09;;;2.11;100.00
32320;BME280;19080;51.750;5.888;2023-03-03T02:29:00;102279.25;;;2.17;100.00
32320;BME280;19080;51.750;5.888;2023-03-03T02:31:29;102191.63;;;1.63;100.00
32320;BME280;19080;51.750;5.888;2023-03-03T02:33:56;102221.50;;;1.79;100.00
32320;BME280;19080;51.750;5.888;2023-03-03T02:36:24;102297.16;;;2.11;100.00
32320;BME280;19080;51.750;5.888;2023-03-03T02:39:06;102299.88;;;2.12;100.00
32320;BME280;19080;51.750;5.888;2023-03-03T02:44:13;102189.94;;;1.64;100.00
32320;BME280;19080;51.750;5.888;2023-03-03T02:46:45;102277.44;;;2.16;100.00
32320;BME280;19080;51.750;5.888;2023-03-03T02:49:15;102194.69;;;1.70;100.00
32320;BME280;19080;51.750;5.888;2023-03-03T02:51:42;102276.41;;;2.14;100.00
32320;BME280;19080;51.750;5.888;2023-03-03T02:54:11;102191.16;;;1.69;100.00
32320;BME280;19080;51.750;5.888;2023-03-03T02:56:38;102244.69;;;1.98;100.00
32320;BME280;19080;51.750;5.888;2023-03-03T02:59:05;102268.78;;;2.17;100.00
32320;BME280;19080;51.750;5.888;2023-03-03T03:01:38;102283.44;;;2.26;100.00
32320;BME280;19080;51.750;5.888;2023-03-03T03:06:41;102266.38;;;2.20;100.00
32320;BME280;19080;51.750;5.888;2023-03-03T03:09:10;102176.66;;;1.74;100.00
32320;BME280;19080;51.750;5.888;2023-03-03T03:11:38;102086.97;;;1.15;100.00
32320;BME280;19080;51.750;5.888;2023-03-03T03:14:06;102186.94;;;1.71;100.00
32320;BME280;19080;51.750;5.888;2023-03-03T03:16:34;102192.59;;;1.77;100.00
32320;BME280;19080;51.750;5.888;2023-03-03T03:19:01;102254.44;;;2.12;100.00
32320;BME280;19080;51.750;5.888;2023-03-03T03:21:30;102194.41;;;1.78;100.00
32320;BME280;19080;51.750;5.888;2023-03-03T03:23:58;102174.34;;;1.66;100.00
32320;BME280;19080;51.750;5.888;2023-03-03T03:26:25;102233.63;;;2.02;100.00
32320;BME280;19080;51.750;5.888;2023-03-03T03:28:52;102268.84;;;2.30;100.00
32320;BME280;19080;51.750;5.888;2023-03-03T03:31:19;102287.19;;;2.30;100.00
32320;BME280;19080;51.750;5.888;2023-03-03T03:33:46;102243.53;;;2.06;100.00
32320;BME280;19080;51.750;5.888;2023-03-03T03:36:15;102285.38;;;2.29;100.00
32320;BME280;19080;51.750;5.888;2023-03-03T03:38:42;102166.16;;;1.61;100.00
32320;BME280;19080;51.750;5.888;2023-03-03T03:41:10;102294.25;;;2.31;100.00
32320;BME280;19080;51.750;5.888;2023-03-03T03:43:37;102170.81;;;1.65;100.00
32320;BME280;19080;51.750;5.888;2023-03-03T03:46:04;102206.47;;;1.88;100.00
32320;BME280;19080;51.750;5.888;2023-03-03T03:48:32;102271.63;;;2.20;100.00
32320;BME280;19080;51.750;5.888;2023-03-03T03:51:00;102266.94;;;2.16;100.00
32320;BME280;19080;51.750;5.888;2023-03-03T03:53:28;102218.97;;;1.92;100.00
32320;BME280;19080;51.750;5.888;2023-03-03T03:55:54;102173.47;;;1.78;100.00
32320;BME280;19080;51.750;5.888;2023-03-03T03:58:21;102274.41;;;2.35;100.00
32320;BME280;19080;51.750;5.888;2023-03-03T04:01:02;102251.69;;;2.22;100.00
32320;BME280;19080;51.750;5.888;2023-03-03T04:03:28;102238.13;;;2.16;100.00
32320;BME280;19080;51.750;5.888;2023-03-03T04:05:55;102172.31;;;1.86;100.00
32320;BME280;19080;51.750;5.888;2023-03-03T04:08:22;102160.38;;;1.78;100.00
32320;BME280;19080;51.750;5.888;2023-03-03T04:10:49;102228.25;;;2.12;100.00
32320;BME280;19080;51.750;5.888;2023-03-03T04:13:16;102170.06;;;1.79;100.00
32320;BME280;19080;51.750;5.888;2023-03-03T04:15:43;102202.56;;;1.94;100.00
32320;BME280;19080;51.750;5.888;2023-03-03T04:18:10;102219.16;;;2.07;100.00
32320;BME280;19080;51.750;5.888;2023-03-03T04:20:38;102270.31;;;2.38;100.00
32320;BME280;19080;51.750;5.888;2023-03-03T04:23:06;102285.56;;;2.44;100.00
32320;BME280;19080;51.750;5.888;2023-03-03T04:25:33;102202.78;;;1.98;100.00
32320;BME280;19080;51.750;5.888;2023-03-03T04:28:00;102288.72;;;2.51;100.00
32320;BME280;19080;51.750;5.888;2023-03-03T04:30:30;102221.84;;;2.20;100.00
32320;BME280;19080;51.750;5.888;2023-03-03T04:32:58;102103.50;;;1.51;100.00
32320;BME280;19080;51.750;5.888;2023-03-03T04:35:26;102171.16;;;1.94;100.00
32320;BME280;19080;51.750;5.888;2023-03-03T04:37:52;102256.19;;;2.36;100.00
32320;BME280;19080;51.750;5.888;2023-03-03T04:40:19;102256.19;;;2.36;100.00
32320;BME280;19080;51.750;5.888;2023-03-03T04:42:48;102285.50;;;2.55;100.00
32320;BME280;19080;51.750;5.888;2023-03-03T04:45:15;102270.84;;;2.46;100.00
32320;BME280;19080;51.750;5.888;2023-03-03T04:47:42;102261.41;;;2.36;100.00
32320;BME280;19080;51.750;5.888;2023-03-03T04:50:10;102190.03;;;2.02;100.00
32320;BME280;19080;51.750;5.888;2023-03-03T04:52:37;102280.03;;;2.52;100.00
32320;BME280;19080;51.750;5.888;2023-03-03T04:55:06;102258.88;;;2.49;100.00
32320;BME280;19080;51.750;5.888;2023-03-03T04:57:36;102186.13;;;2.09;100.00
32320;BME280;19080;51.750;5.888;2023-03-03T05:00:04;102192.06;;;2.06;100.00
32320;BME280;19080;51.750;5.888;2023-03-03T05:02:32;102301.28;;;2.69;100.00
32320;BME280;19080;51.750;5.888;2023-03-03T05:04:59;102285.72;;;2.58;100.00
32320;BME280;19080;51.750;5.888;2023-03-03T05:07:26;102194.13;;;1.99;100.00
32320;BME280;19080;51.750;5.888;2023-03-03T05:09:52;102199.81;;;2.05;100.00
32320;BME280;19080;51.750;5.888;2023-03-03T05:12:19;102243.44;;;2.29;100.00
32320;BME280;19080;51.750;5.888;2023-03-03T05:14:46;102190.72;;;2.00;100.00
32320;BME280;19080;51.750;5.888;2023-03-03T05:17:13;102312.56;;;2.68;100.00
32320;BME280;19080;51.750;5.888;2023-03-03T05:19:39;102311.41;;;2.76;100.00
32320;BME280;19080;51.750;5.888;2023-03-03T05:22:06;102209.22;;;2.14;100.00
32320;BME280;19080;51.750;5.888;2023-03-03T05:24:33;102226.38;;;2.22;100.00
32320;BME280;19080;51.750;5.888;2023-03-03T05:27:00;102313.22;;;2.77;100.00
32320;BME280;19080;51.750;5.888;2023-03-03T05:29:26;102322.31;;;2.82;100.00
32320;BME280;19080;51.750;5.888;2023-03-03T05:31:53;102291.41;;;2.65;100.00
32320;BME280;19080;51.750;5.888;2023-03-03T05:34:20;102282.50;;;2.63;100.00
32320;BME280;19080;51.750;5.888;2023-03-03T05:36:50;102281.81;;;2.65;100.00
32320;BME280;19080;51.750;5.888;2023-03-03T05:39:16;102314.66;;;2.85;100.00
32320;BME280;19080;51.750;5.888;2023-03-03T05:41:43;102280.22;;;2.67;100.00
32320;BME280;19080;51.750;5.888;2023-03-03T05:44:10;102247.91;;;2.55;100.00
32320;BME280;19080;51.750;5.888;2023-03-03T05:46:36;102217.91;;;2.38;100.00
32320;BME280;19080;51.750;5.888;2023-03-03T05:49:03;102207.91;;;2.33;100.00
32320;BME280;19080;51.750;5.888;2023-03-03T05:51:29;102289.25;;;2.84;100.00
32320;BME280;19080;51.750;5.888;2023-03-03T05:53:56;102292.47;;;2.80;100.00
32320;BME280;19080;51.750;5.888;2023-03-03T05:56:22;102208.22;;;2.37;100.00
32320;BME280;19080;51.750;5.888;2023-03-03T05:58:49;102303.59;;;2.89;100.00
32320;BME280;19080;51.750;5.888;2023-03-03T06:01:16;102278.34;;;2.78;100.00
32320;BME280;19080;51.750;5.888;2023-03-03T06:03:42;102294.81;;;2.88;100.00
32320;BME280;19080;51.750;5.888;2023-03-03T06:06:09;102278.56;;;2.81;100.00
32320;BME280;19080;51.750;5.888;2023-03-03T06:08:35;102197.63;;;2.36;100.00
32320;BME280;19080;51.750;5.888;2023-03-03T06:11:02;102295.81;;;2.90;100.00
32320;BME280;19080;51.750;5.888;2023-03-03T06:13:29;102310.06;;;2.94;100.00
32320;BME280;19080;51.750;5.888;2023-03-03T06:15:55;102326.13;;;2.99;100.00
32320;BME280;19080;51.750;5.888;2023-03-03T06:18:22;102299.94;;;2.87;100.00
32320;BME280;19080;51.750;5.888;2023-03-03T06:20:53;102240.72;;;2.52;100.00
32320;BME280;19080;51.750;5.888;2023-03-03T06:23:20;102307.13;;;2.89;100.00
32320;BME280;19080;51.750;5.888;2023-03-03T06:25:47;102321.34;;;2.93;100.00
32320;BME280;19080;51.750;5.888;2023-03-03T06:28:13;102283.00;;;2.82;100.00
32320;BME280;19080;51.750;5.888;2023-03-03T06:30:40;102193.78;;;2.31;100.00
32320;BME280;19080;51.750;5.888;2023-03-03T06:33:07;102233.28;;;2.58;100.00
32320;BME280;19080;51.750;5.888;2023-03-03T06:35:33;102338.16;;;3.08;100.00
32320;BME280;19080;51.750;5.888;2023-03-03T06:38:00;102321.78;;;2.99;100.00
32320;BME280;19080;51.750;5.888;2023-03-03T06:40:27;102310.88;;;2.93;100.00
32320;BME280;19080;51.750;5.888;2023-03-03T06:42:53;102325.41;;;3.01;100.00
32320;BME280;19080;51.750;5.888;2023-03-03T06:45:20;102324.63;;;3.02;100.00
32320;BME280;19080;51.750;5.888;2023-03-03T06:47:47;102353.84;;;3.20;100.00
32320;BME280;19080;51.750;5.888;2023-03-03T06:50:17;102197.53;;;2.34;100.00
32320;BME280;19080;51.750;5.888;2023-03-03T06:52:45;102277.75;;;2.82;100.00
32320;BME280;19080;51.750;5.888;2023-03-03T06:55:17;102360.63;;;3.30;100.00
32320;BME280;19080;51.750;5.888;2023-03-03T06:57:46;102345.59;;;3.27;100.00
32320;BME280;19080;51.750;5.888;2023-03-03T07:00:23;102281.59;;;2.87;100.00
32320;BME280;19080;51.750;5.888;2023-03-03T07:03:01;102353.44;;;3.27;100.00
32320;BME280;19080;51.750;5.888;2023-03-03T07:05:31;102266.25;;;2.80;100.00
32320;BME280;19080;51.750;5.888;2023-03-03T07:07:59;102301.00;;;3.02;100.00
32320;BME280;19080;51.750;5.888;2023-03-03T07:10:28;102367.69;;;3.31;100.00
32320;BME280;19080;51.750;5.888;2023-03-03T07:13:00;102368.28;;;3.26;100.00
32320;BME280;19080;51.750;5.888;2023-03-03T07:15:36;102382.25;;;3.39;100.00
32320;BME280;19080;51.750;5.888;2023-03-03T07:18:10;102293.00;;;2.87;100.00
32320;BME280;19080;51.750;5.888;2023-03-03T07:20:46;102311.06;;;2.96;100.00
32320;BME280;19080;51.750;5.888;2023-03-03T07:23:25;102396.78;;;3.47;100.00
32320;BME280;19080;51.750;5.888;2023-03-03T07:25:53;102296.31;;;2.85;100.00
32320;BME280;19080;51.750;5.888;2023-03-03T07:28:26;102316.53;;;2.99;100.00
32320;BME280;19080;51.750;5.888;2023-03-03T07:30:55;102310.50;;;3.00;100.00
32320;BME280;19080;51.750;5.888;2023-03-03T07:33:28;102312.84;;;3.09;100.00
32320;BME280;19080;51.750;5.888;2023-03-03T07:35:57;102407.91;;;3.56;100.00
32320;BME280;19080;51.750;5.888;2023-03-03T07:38:37;102315.34;;;3.07;100.00
32320;BME280;19080;51.750;5.888;2023-03-03T07:41:23;102415.59;;;3.66;100.00
32320;BME280;19080;51.750;5.888;2023-03-03T07:44:36;102416.72;;;3.70;100.00
32320;BME280;19080;51.750;5.888;2023-03-03T07:46:46;102382.47;;;3.55;100.00
32320;BME280;19080;51.750;5.888;2023-03-03T07:49:31;102403.28;;;3.65;100.00
32320;BME280;19080;51.750;5.888;2023-03-03T07:52:00;102411.69;;;3.73;100.00
32320;BME280;19080;51.750;5.888;2023-03-03T07:54:40;102410.06;;;3.75;100.00
32320;BME280;19080;51.750;5.888;2023-03-03T07:59:36;102337.41;;;3.49;100.00
32320;BME280;19080;51.750;5.888;2023-03-03T08:02:15;102269.25;;;3.11;100.00
32320;BME280;19080;51.750;5.888;2023-03-03T08:04:51;102415.97;;;3.97;100.00
32320;BME280;19080;51.750;5.888;2023-03-03T08:07:20;102420.81;;;4.04;100.00
32320;BME280;19080;51.750;5.888;2023-03-03T08:10:00;102438.31;;;4.17;100.00
32320;BME280;19080;51.750;5.888;2023-03-03T08:12:31;102441.13;;;4.20;100.00
32320;BME280;19080;51.750;5.888;2023-03-03T08:15:22;102431.03;;;4.26;100.00
32320;BME280;19080;51.750;5.888;2023-03-03T08:17:51;102402.22;;;4.14;100.00
32320;BME280;19080;51.750;5.888;2023-03-03T08:22:51;102442.66;;;4.43;100.00
32320;BME280;19080;51.750;5.888;2023-03-03T08:25:17;102424.84;;;4.39;100.00
32320;BME280;19080;51.750;5.888;2023-03-03T08:27:44;102393.03;;;4.21;100.00
32320;BME280;19080;51.750;5.888;2023-03-03T08:30:11;102359.97;;;3.98;100.00
32320;BME280;19080;51.750;5.888;2023-03-03T08:32:37;102429.41;;;4.41;100.00
32320;BME280;19080;51.750;5.888;2023-03-03T08:35:04;102428.38;;;4.52;100.00
32320;BME280;19080;51.750;5.888;2023-03-03T08:37:31;102443.22;;;4.65;100.00
32320;BME280;19080;51.750;5.888;2023-03-03T08:39:58;102333.69;;;4.11;100.00
32320;BME280;19080;51.750;5.888;2023-03-03T08:42:24;102449.59;;;4.82;100.00
32320;BME280;19080;51.750;5.888;2023-03-03T08:44:51;102441.06;;;4.86;100.00
32320;BME280;19080;51.750;5.888;2023-03-03T08:47:18;102462.06;;;5.12;100.00
32320;BME280;19080;51.750;5.888;2023-03-03T08:49:46;102367.50;;;4.60;100.00
32320;BME280;19080;51.750;5.888;2023-03-03T08:52:13;102437.94;;;5.19;100.00
32320;BME280;19080;51.750;5.888;2023-03-03T08:54:39;102445.59;;;5.44;100.00
32320;BME280;19080;51.750;5.888;2023-03-03T08:57:06;102416.53;;;5.43;100.00
32320;BME280;19080;51.750;5.888;2023-03-03T08:59:33;102433.72;;;5.66;100.00
32320;BME280;19080;51.750;5.888;2023-03-03T09:02:05;102454.44;;;5.74;100.00
32320;BME280;19080;51.750;5.888;2023-03-03T09:04:32;102422.47;;;5.68;100.00
32320;BME280;19080;51.750;5.888;2023-03-03T09:06:59;102470.22;;;6.02;100.00
32320;BME280;19080;51.750;5.888;2023-03-03T09:09:25;102439.16;;;5.97;100.00
32320;BME280;19080;51.750;5.888;2023-03-03T09:11:57;102449.31;;;5.91;100.00
32320;BME280;19080;51.750;5.888;2023-03-03T09:14:27;102476.41;;;6.03;100.00
32320;BME280;19080;51.750;5.888;2023-03-03T09:16:55;102405.47;;;5.48;100.00
32320;BME280;19080;51.750;5.888;2023-03-03T09:24:42;102383.09;;;5.12;100.00
32320;BME280;19080;51.750;5.888;2023-03-03T09:27:29;102470.88;;;5.70;100.00
32320;BME280;19080;51.750;5.888;2023-03-03T09:32:58;102399.28;;;5.48;100.00
32320;BME280;19080;51.750;5.888;2023-03-03T09:37:52;102481.69;;;6.03;100.00
32320;BME280;19080;51.750;5.888;2023-03-03T09:40:46;102482.69;;;6.05;100.00
32320;BME280;19080;51.750;5.888;2023-03-03T10:00:41;102499.50;;;6.22;100.00
32320;BME280;19080;51.750;5.888;2023-03-03T10:09:28;102501.13;;;6.49;100.00
32320;BME280;19080;51.750;5.888;2023-03-03T10:12:26;102497.56;;;6.63;100.00
32320;BME280;19080;51.750;5.888;2023-03-03T10:25:49;102499.22;;;7.08;100.00
32320;BME280;19080;51.750;5.888;2023-03-03T10:31:33;102496.25;;;7.18;100.00
32320;BME280;19080;51.750;5.888;2023-03-03T10:34:36;102502.97;;;7.28;100.00
32320;BME280;19080;51.750;5.888;2023-03-03T10:45:44;102459.03;;;8.31;100.00
32320;BME280;19080;51.750;5.888;2023-03-03T10:51:28;102496.19;;;9.23;100.00
32320;BME280;19080;51.750;5.888;2023-03-03T11:02:30;102499.59;;;8.47;100.00
32320;BME280;19080;51.750;5.888;2023-03-03T11:05:27;102495.00;;;8.43;100.00
32320;BME280;19080;51.750;5.888;2023-03-03T11:08:00;102373.84;;;8.20;100.00
32320;BME280;19080;51.750;5.888;2023-03-03T11:13:20;102482.13;;;11.30;90.64
32320;BME280;19080;51.750;5.888;2023-03-03T11:21:50;102481.81;;;11.45;74.81
32320;BME280;19080;51.750;5.888;2023-03-03T11:24:34;102353.00;;;11.62;67.69
32320;BME280;19080;51.750;5.888;2023-03-03T11:27:25;102473.38;;;13.41;61.24
32320;BME280;19080;51.750;5.888;2023-03-03T11:30:15;102466.81;;;14.58;58.16
32320;BME280;19080;51.750;5.888;2023-03-03T11:44:08;102448.44;;;15.97;48.32
32320;BME280;19080;51.750;5.888;2023-03-03T11:46:43;102453.91;;;15.16;49.99
32320;BME280;19080;51.750;5.888;2023-03-03T11:49:32;102407.38;;;15.51;48.70
32320;BME280;19080;51.750;5.888;2023-03-03T11:57:28;102445.94;;;17.15;44.59
32320;BME280;19080;51.750;5.888;2023-03-03T12:00:04;102448.88;;;17.36;43.92
32320;BME280;19080;51.750;5.888;2023-03-03T12:05:45;102430.53;;;18.62;42.17
32320;BME280;19080;51.750;5.888;2023-03-03T12:10:54;102398.72;;;19.57;38.97
32320;BME280;19080;51.750;5.888;2023-03-03T12:21:41;102416.81;;;20.61;37.25
32320;BME280;19080;51.750;5.888;2023-03-03T12:30:01;102380.84;;;20.17;35.57
32320;BME280;19080;51.750;5.888;2023-03-03T12:35:17;102408.72;;;20.22;35.97
32320;BME280;19080;51.750;5.888;2023-03-03T12:45:48;102399.75;;;20.49;35.77
32320;BME280;19080;51.750;5.888;2023-03-03T12:48:44;102387.03;;;20.95;35.18
32320;BME280;19080;51.750;5.888;2023-03-03T13:02:44;102347.66;;;22.15;32.80
32320;BME280;19080;51.750;5.888;2023-03-03T13:05:34;102357.75;;;21.88;33.17
32320;BME280;19080;51.750;5.888;2023-03-03T13:08:29;102365.50;;;22.35;32.26
32320;BME280;19080;51.750;5.888;2023-03-03T13:14:16;102280.81;;;22.26;31.50
32320;BME280;19080;51.750;5.888;2023-03-03T13:17:03;102362.91;;;22.25;31.80
32320;BME280;19080;51.750;5.888;2023-03-03T13:19:40;102266.72;;;21.87;31.51
32320;BME280;19080;51.750;5.888;2023-03-03T13:25:31;102361.44;;;22.78;31.16
32320;BME280;19080;51.750;5.888;2023-03-03T13:28:04;102356.38;;;22.47;30.49
32320;BME280;19080;51.750;5.888;2023-03-03T13:30:34;102285.22;;;21.18;32.09
32320;BME280;19080;51.750;5.888;2023-03-03T13:33:24;102369.13;;;20.75;33.15
32320;BME280;19080;51.750;5.888;2023-03-03T13:38:25;102352.97;;;22.27;30.89
32320;BME280;19080;51.750;5.888;2023-03-03T13:41:02;102329.25;;;18.67;34.67
32320;BME280;19080;51.750;5.888;2023-03-03T13:43:36;102278.34;;;19.48;34.61
32320;BME280;19080;51.750;5.888;2023-03-03T13:46:15;102330.31;;;20.98;32.36
32320;BME280;19080;51.750;5.888;2023-03-03T13:48:51;102359.63;;;21.79;31.17
32320;BME280;19080;51.750;5.888;2023-03-03T13:51:32;102314.25;;;19.45;32.92
32320;BME280;19080;51.750;5.888;2023-03-03T13:54:10;102343.44;;;17.49;36.20
32320;BME280;19080;51.750;5.888;2023-03-03T13:59:46;102322.44;;;16.47;38.98
32320;BME280;19080;51.750;5.888;2023-03-03T14:04:53;102321.50;;;20.44;34.43
32320;BME280;19080;51.750;5.888;2023-03-03T14:07:42;102256.81;;;20.07;33.48
32320;BME280;19080;51.750;5.888;2023-03-03T14:15:37;102341.28;;;19.79;33.97
32320;BME280;19080;51.750;5.888;2023-03-03T14:18:29;102349.63;;;18.38;36.42
32320;BME280;19080;51.750;5.888;2023-03-03T14:21:08;102331.41;;;20.18;34.36
32320;BME280;19080;51.750;5.888;2023-03-03T14:23:50;102329.59;;;20.32;33.72
32320;BME280;19080;51.750;5.888;2023-03-03T14:26:21;102235.28;;;19.92;33.44
32320;BME280;19080;51.750;5.888;2023-03-03T14:28:49;102316.50;;;18.43;35.58
32320;BME280;19080;51.750;5.888;2023-03-03T14:31:29;102316.94;;;16.38;38.96
32320;BME280;19080;51.750;5.888;2023-03-03T14:34:02;102323.41;;;18.05;37.80
32320;BME280;19080;51.750;5.888;2023-03-03T14:36:36;102311.22;;;16.72;38.60
32320;BME280;19080;51.750;5.888;2023-03-03T14:39:25;102331.06;;;16.85;39.40
32320;BME280;19080;51.750;5.888;2023-03-03T14:41:53;102328.78;;;17.17;37.98
32320;BME280;19080;51.750;5.888;2023-03-03T14:44:28;102286.53;;;16.34;39.07
32320;BME280;19080;51.750;5.888;2023-03-03T14:49:34;102322.78;;;13.97;43.33
32320;BME280;19080;51.750;5.888;2023-03-03T14:54:41;102311.63;;;12.24;47.17
32320;BME280;19080;51.750;5.888;2023-03-03T14:57:22;102333.84;;;11.72;49.65
32320;BME280;19080;51.750;5.888;2023-03-03T15:00:29;102330.88;;;11.38;51.35
32320;BME280;19080;51.750;5.888;2023-03-03T15:03:21;102207.56;;;10.60;52.47
32320;BME280;19080;51.750;5.888;2023-03-03T15:05:50;102233.09;;;10.56;53.68
32320;BME280;19080;51.750;5.888;2023-03-03T15:08:31;102321.84;;;11.84;52.63
32320;BME280;19080;51.750;5.888;2023-03-03T15:11:33;102306.50;;;11.51;53.73
32320;BME280;19080;51.750;5.888;2023-03-03T15:14:15;102210.44;;;10.66;54.29
32320;BME280;19080;51.750;5.888;2023-03-03T15:16:44;102310.94;;;11.01;55.60
32320;BME280;19080;51.750;5.888;2023-03-03T15:25:11;102279.66;;;12.53;54.05
32320;BME280;19080;51.750;5.888;2023-03-03T15:30:50;102265.22;;;14.08;47.95
32320;BME280;19080;51.750;5.888;2023-03-03T15:33:27;102281.88;;;13.98;48.43
32320;BME280;19080;51.750;5.888;2023-03-03T15:36:01;102281.19;;;14.43;48.01
32320;BME280;19080;51.750;5.888;2023-03-03T15:38:54;102181.78;;;14.60;46.17
32320;BME280;19080;51.750;5.888;2023-03-03T15:41:42;102172.53;;;15.38;44.34
32320;BME280;19080;51.750;5.888;2023-03-03T15:44:29;102272.88;;;16.79;42.01
32320;BME280;19080;51.750;5.888;2023-03-03T15:49:56;102268.50;;;14.36;44.72
32320;BME280;19080;51.750;5.888;2023-03-03T15:52:55;102252.78;;;13.37;46.57
32320;BME280;19080;51.750;5.888;2023-03-03T16:03:28;102265.25;;;11.62;52.62
32320;BME280;19080;51.750;5.888;2023-03-03T16:06:10;102272.38;;;11.38;53.07
32320;BME280;19080;51.750;5.888;2023-03-03T16:11:33;102276.38;;;11.01;55.62
32320;BME280;19080;51.750;5.888;2023-03-03T16:28:22;102276.84;;;9.99;70.66
32320;BME280;19080;51.750;5.888;2023-03-03T16:30:59;102108.94;;;8.91;73.35
32320;BME280;19080;51.750;5.888;2023-03-03T16:36:33;102299.19;;;9.62;79.33
32320;BME280;19080;51.750;5.888;2023-03-03T16:39:26;102309.41;;;9.53;81.06
32320;BME280;19080;51.750;5.888;2023-03-03T16:44:41;102257.19;;;9.10;79.29
32320;BME280;19080;51.750;5.888;2023-03-03T16:47:21;102295.66;;;9.22;80.32
32320;BME280;19080;51.750;5.888;2023-03-03T16:50:04;102139.84;;;8.12;83.47
32320;BME280;19080;51.750;5.888;2023-03-03T16:52:44;102303.78;;;8.86;87.28
32320;BME280;19080;51.750;5.888;2023-03-03T16:55:33;102319.59;;;8.85;89.88
32320;BME280;19080;51.750;5.888;2023-03-03T16:58:19;102297.81;;;8.52;92.24